createdAt,value
2019-03-15T00:00:08.071Z,988.11
2019-03-15T00:01:18.779Z,988.11
2019-03-15T00:02:29.486Z,988.17
2019-03-15T00:03:40.683Z,988.16
2019-03-15T00:04:51.377Z,988.18
2019-03-15T00:06:02.081Z,988.19
2019-03-15T00:07:13.272Z,988.24
2019-03-15T00:08:24.627Z,988.24
2019-03-15T00:09:35.338Z,988.23
2019-03-15T00:10:46.644Z,988.25
2019-03-15T00:11:57.860Z,988.29
2019-03-15T00:13:08.561Z,988.32
2019-03-15T00:14:19.255Z,988.34
2019-03-15T00:15:30.157Z,988.31
2019-03-15T00:16:41.143Z,988.31
2019-03-15T00:17:51.843Z,988.28
2019-03-15T00:19:02.542Z,988.20
2019-03-15T00:20:13.243Z,988.19
2019-03-15T00:21:23.946Z,988.21
2019-03-15T00:22:34.679Z,988.26
2019-03-15T00:23:45.347Z,988.20
2019-03-15T00:24:56.059Z,988.26
2019-03-15T00:26:06.752Z,988.22
2019-03-15T00:27:17.935Z,988.19
2019-03-15T00:28:28.629Z,988.19
2019-03-15T00:29:39.327Z,988.21
2019-03-15T00:30:50.026Z,988.24
2019-03-15T00:32:00.736Z,988.18
2019-03-15T00:33:11.424Z,988.22
2019-03-15T00:34:22.125Z,988.22
2019-03-15T00:35:32.837Z,988.30
2019-03-15T00:36:43.545Z,988.28
2019-03-15T00:37:54.235Z,988.30
2019-03-15T00:39:04.929Z,988.26
2019-03-15T00:40:15.675Z,988.19
2019-03-15T00:41:26.832Z,988.29
2019-03-15T00:42:37.535Z,988.33
2019-03-15T00:43:49.896Z,988.36
2019-03-15T00:45:00.425Z,988.32
2019-03-15T00:46:11.117Z,988.40
2019-03-15T00:47:21.834Z,988.45
2019-03-15T00:48:32.542Z,988.40
2019-03-15T00:49:43.245Z,988.36
2019-03-15T00:50:53.949Z,988.37
2019-03-15T00:52:04.662Z,988.37
2019-03-15T00:53:15.357Z,988.39
2019-03-15T00:54:26.063Z,988.39
2019-03-15T00:55:36.761Z,988.43
2019-03-15T00:56:47.470Z,988.47
2019-03-15T00:57:58.661Z,988.45
2019-03-15T00:59:09.360Z,988.49
2019-03-15T01:00:20.067Z,988.44
2019-03-15T01:01:30.771Z,988.44
2019-03-15T01:02:44.213Z,988.41
2019-03-15T01:03:52.679Z,988.40
2019-03-15T01:05:04.379Z,988.38
2019-03-15T01:06:15.073Z,988.43
2019-03-15T01:07:25.779Z,988.46
2019-03-15T01:08:36.981Z,988.50
2019-03-15T01:09:47.685Z,988.50
2019-03-15T01:10:58.400Z,988.53
2019-03-15T01:12:09.107Z,988.54
2019-03-15T01:13:19.814Z,988.55
2019-03-15T01:14:30.989Z,988.51
2019-03-15T01:15:42.190Z,988.57
2019-03-15T01:16:52.910Z,988.55
2019-03-15T01:18:03.614Z,988.59
2019-03-15T01:19:14.807Z,988.61
2019-03-15T01:20:25.527Z,988.68
2019-03-15T01:21:36.236Z,988.70
2019-03-15T01:22:46.938Z,988.72
2019-03-15T01:23:57.644Z,988.68
2019-03-15T01:25:08.341Z,988.68
2019-03-15T01:26:19.158Z,988.69
2019-03-15T01:27:29.754Z,988.69
2019-03-15T01:28:40.950Z,988.63
2019-03-15T01:29:51.673Z,988.67
2019-03-15T01:31:02.377Z,988.62
2019-03-15T01:32:13.084Z,988.53
2019-03-15T01:33:23.793Z,988.46
2019-03-15T01:34:34.651Z,988.54
2019-03-15T01:35:45.860Z,988.43
2019-03-15T01:36:57.057Z,988.50
2019-03-15T01:38:07.768Z,988.55
2019-03-15T01:39:19.460Z,988.53
2019-03-15T01:40:30.159Z,988.56
2019-03-15T01:41:40.869Z,988.62
2019-03-15T01:42:52.083Z,988.61
2019-03-15T01:44:03.498Z,988.61
2019-03-15T01:45:13.488Z,988.68
2019-03-15T01:46:24.183Z,988.66
2019-03-15T01:47:35.400Z,988.62
2019-03-15T01:48:46.101Z,988.68
2019-03-15T01:49:57.303Z,988.68
2019-03-15T01:51:08.005Z,988.69
2019-03-15T01:52:18.709Z,988.63
2019-03-15T01:53:29.949Z,988.68
2019-03-15T01:54:40.610Z,988.61
2019-03-15T01:55:51.308Z,988.60
2019-03-15T01:57:02.003Z,988.56
2019-03-15T01:58:13.198Z,988.57
2019-03-15T01:59:24.385Z,988.56
2019-03-15T02:00:35.153Z,988.57
2019-03-15T02:01:46.271Z,988.53
2019-03-15T02:02:56.971Z,988.48
2019-03-15T02:04:08.168Z,988.40
2019-03-15T02:05:18.874Z,988.39
2019-03-15T02:06:30.074Z,988.37
2019-03-15T02:07:40.772Z,988.43
2019-03-15T02:08:52.502Z,988.40
2019-03-15T02:10:02.182Z,988.31
2019-03-15T02:11:12.891Z,988.27
2019-03-15T02:12:23.598Z,988.31
2019-03-15T02:13:34.801Z,988.35
2019-03-15T02:14:45.526Z,988.35
2019-03-15T02:15:56.217Z,988.39
2019-03-15T02:17:06.925Z,988.36
2019-03-15T02:18:18.718Z,988.33
2019-03-15T02:19:28.328Z,988.33
2019-03-15T02:20:39.522Z,988.35
2019-03-15T02:21:50.221Z,988.40
2019-03-15T02:23:01.413Z,988.41
2019-03-15T02:24:12.113Z,988.42
2019-03-15T02:25:22.819Z,988.44
2019-03-15T02:26:34.041Z,988.44
2019-03-15T02:27:44.747Z,988.41
2019-03-15T02:28:55.452Z,988.44
2019-03-15T02:30:06.160Z,988.47
2019-03-15T02:31:17.372Z,988.47
2019-03-15T02:32:28.083Z,988.53
2019-03-15T02:33:39.299Z,988.50
2019-03-15T02:34:50.201Z,988.48
2019-03-15T02:36:01.210Z,988.45
2019-03-15T02:37:11.910Z,988.51
2019-03-15T02:38:22.626Z,988.53
2019-03-15T02:39:33.836Z,988.52
2019-03-15T02:40:45.032Z,988.56
2019-03-15T02:41:55.738Z,988.50
2019-03-15T02:43:06.436Z,988.48
2019-03-15T02:44:17.145Z,988.51
2019-03-15T02:45:28.336Z,988.50
2019-03-15T02:46:39.058Z,988.56
2019-03-15T02:47:49.773Z,988.59
2019-03-15T02:49:00.637Z,988.55
2019-03-15T02:50:11.348Z,988.58
2019-03-15T02:51:23.358Z,988.52
2019-03-15T02:52:33.238Z,988.49
2019-03-15T02:53:43.938Z,988.50
2019-03-15T02:54:55.147Z,988.49
2019-03-15T02:56:05.851Z,988.45
2019-03-15T02:57:16.543Z,988.45
2019-03-15T02:58:27.954Z,988.52
2019-03-15T02:59:37.986Z,988.52
2019-03-15T03:00:49.186Z,988.52
2019-03-15T03:02:00.690Z,988.53
2019-03-15T03:03:11.082Z,988.51
2019-03-15T03:04:21.787Z,988.49
2019-03-15T03:05:33.605Z,988.53
2019-03-15T03:06:43.207Z,988.53
2019-03-15T03:07:53.941Z,988.51
2019-03-15T03:09:04.623Z,988.52
2019-03-15T03:10:15.334Z,988.58
2019-03-15T03:11:26.604Z,988.53
2019-03-15T03:12:37.321Z,988.53
2019-03-15T03:13:48.018Z,988.54
2019-03-15T03:14:59.242Z,988.56
2019-03-15T03:16:09.927Z,988.57
2019-03-15T03:17:20.637Z,988.60
2019-03-15T03:18:31.335Z,988.61
2019-03-15T03:19:42.054Z,988.60
2019-03-15T03:20:52.759Z,988.67
2019-03-15T03:22:03.476Z,988.66
2019-03-15T03:23:14.697Z,988.66
2019-03-15T03:24:25.378Z,988.60
2019-03-15T03:25:36.088Z,988.64
2019-03-15T03:26:46.798Z,988.57
2019-03-15T03:27:58.011Z,988.63
2019-03-15T03:29:09.202Z,988.60
2019-03-15T03:30:19.910Z,988.54
2019-03-15T03:31:30.635Z,988.54
2019-03-15T03:32:44.157Z,988.49
2019-03-15T03:33:53.042Z,988.46
2019-03-15T03:35:03.797Z,988.49
2019-03-15T03:36:14.467Z,988.56
2019-03-15T03:37:25.655Z,988.56
2019-03-15T03:38:36.354Z,988.57
2019-03-15T03:39:47.055Z,988.59
2019-03-15T03:40:57.785Z,988.63
2019-03-15T03:42:08.478Z,988.62
2019-03-15T03:43:19.180Z,988.62
2019-03-15T03:44:29.881Z,988.60
2019-03-15T03:45:40.601Z,988.59
2019-03-15T03:46:52.024Z,988.64
2019-03-15T03:48:02.024Z,988.65
2019-03-15T03:49:13.227Z,988.66
2019-03-15T03:50:24.418Z,988.67
2019-03-15T03:51:35.623Z,988.71
2019-03-15T03:52:46.824Z,988.72
2019-03-15T03:53:57.530Z,988.66
2019-03-15T03:55:08.231Z,988.60
2019-03-15T03:56:19.032Z,988.57
2019-03-15T03:57:29.667Z,988.59
2019-03-15T03:58:40.368Z,988.65
2019-03-15T03:59:51.071Z,988.63
2019-03-15T04:01:01.790Z,988.61
2019-03-15T04:02:12.498Z,988.55
2019-03-15T04:03:23.195Z,988.58
2019-03-15T04:04:34.387Z,988.64
2019-03-15T04:05:45.090Z,988.67
2019-03-15T04:06:55.799Z,988.72
2019-03-15T04:08:07.003Z,988.71
2019-03-15T04:09:18.199Z,988.75
2019-03-15T04:10:28.904Z,988.75
2019-03-15T04:11:39.619Z,988.70
2019-03-15T04:12:50.319Z,988.70
2019-03-15T04:14:01.570Z,988.65
2019-03-15T04:15:12.235Z,988.66
2019-03-15T04:16:23.458Z,988.66
2019-03-15T04:17:34.169Z,988.61
2019-03-15T04:18:44.870Z,988.63
2019-03-15T04:19:55.578Z,988.63
2019-03-15T04:21:06.298Z,988.58
2019-03-15T04:22:17.009Z,988.58
2019-03-15T04:23:28.216Z,988.49
2019-03-15T04:24:38.909Z,988.49
2019-03-15T04:25:49.607Z,988.56
2019-03-15T04:27:00.370Z,988.61
2019-03-15T04:28:11.072Z,988.64
2019-03-15T04:29:21.789Z,988.65
2019-03-15T04:30:32.624Z,988.65
2019-03-15T04:31:43.342Z,988.61
2019-03-15T04:32:54.046Z,988.56
2019-03-15T04:34:04.749Z,988.57
2019-03-15T04:35:15.454Z,988.58
2019-03-15T04:36:26.164Z,988.59
2019-03-15T04:37:36.880Z,988.57
2019-03-15T04:38:47.579Z,988.61
2019-03-15T04:39:58.285Z,988.64
2019-03-15T04:41:09.490Z,988.63
2019-03-15T04:42:20.204Z,988.63
2019-03-15T04:43:30.906Z,988.66
2019-03-15T04:44:42.096Z,988.68
2019-03-15T04:45:53.298Z,988.62
2019-03-15T04:47:04.015Z,988.60
2019-03-15T04:48:14.723Z,988.57
2019-03-15T04:49:25.428Z,988.63
2019-03-15T04:50:36.145Z,988.66
2019-03-15T04:51:46.849Z,988.65
2019-03-15T04:52:57.550Z,988.67
2019-03-15T04:54:08.251Z,988.72
2019-03-15T04:55:18.953Z,988.68
2019-03-15T04:56:30.657Z,988.69
2019-03-15T04:57:41.368Z,988.66
2019-03-15T04:58:52.075Z,988.65
2019-03-15T05:00:02.776Z,988.61
2019-03-15T05:01:13.495Z,988.60
2019-03-15T05:02:24.195Z,988.59
2019-03-15T05:03:34.916Z,988.54
2019-03-15T05:04:45.619Z,988.55
2019-03-15T05:06:03.307Z,988.57
2019-03-15T05:07:07.040Z,988.53
2019-03-15T05:08:18.253Z,988.52
2019-03-15T05:09:29.102Z,988.57
2019-03-15T05:10:39.748Z,988.55
2019-03-15T05:11:50.952Z,988.50
2019-03-15T05:13:01.652Z,988.51
2019-03-15T05:14:12.367Z,988.50
2019-03-15T05:15:23.072Z,988.48
2019-03-15T05:16:33.783Z,988.51
2019-03-15T05:17:44.669Z,988.48
2019-03-15T05:18:55.377Z,988.49
2019-03-15T05:20:06.091Z,988.52
2019-03-15T05:21:17.288Z,988.52
2019-03-15T05:22:27.995Z,988.55
2019-03-15T05:23:38.717Z,988.53
2019-03-15T05:24:49.917Z,988.55
2019-03-15T05:26:00.618Z,988.57
2019-03-15T05:27:11.327Z,988.61
2019-03-15T05:28:22.027Z,988.62
2019-03-15T05:29:32.740Z,988.55
2019-03-15T05:30:43.441Z,988.49
2019-03-15T05:31:54.156Z,988.46
2019-03-15T05:33:04.865Z,988.47
2019-03-15T05:34:15.576Z,988.54
2019-03-15T05:35:26.273Z,988.47
2019-03-15T05:36:36.982Z,988.46
2019-03-15T05:37:47.684Z,988.48
2019-03-15T05:38:58.402Z,988.51
2019-03-15T05:40:09.119Z,988.50
2019-03-15T05:41:20.326Z,988.48
2019-03-15T05:42:31.035Z,988.44
2019-03-15T05:43:42.237Z,988.52
2019-03-15T05:44:52.946Z,988.55
2019-03-15T05:46:03.661Z,988.45
2019-03-15T05:47:14.871Z,988.48
2019-03-15T05:48:26.073Z,988.47
2019-03-15T05:49:37.284Z,988.49
2019-03-15T05:50:47.987Z,988.42
2019-03-15T05:51:58.700Z,988.39
2019-03-15T05:53:09.427Z,988.45
2019-03-15T05:54:20.159Z,988.47
2019-03-15T05:55:30.860Z,988.51
2019-03-15T05:56:41.573Z,988.54
2019-03-15T05:57:52.770Z,988.51
2019-03-15T05:59:03.485Z,988.57
2019-03-15T06:00:14.247Z,988.56
2019-03-15T06:01:24.909Z,988.57
2019-03-15T06:02:35.620Z,988.53
2019-03-15T06:03:48.916Z,988.60
2019-03-15T06:04:57.062Z,988.60
2019-03-15T06:06:07.775Z,988.61
2019-03-15T06:07:19.974Z,988.59
2019-03-15T06:08:30.689Z,988.57
2019-03-15T06:09:41.396Z,988.64
2019-03-15T06:10:54.727Z,988.64
2019-03-15T06:12:02.835Z,988.63
2019-03-15T06:13:13.546Z,988.58
2019-03-15T06:14:24.338Z,988.54
2019-03-15T06:15:35.473Z,988.53
2019-03-15T06:16:46.187Z,988.56
2019-03-15T06:17:56.895Z,988.57
2019-03-15T06:19:07.618Z,988.56
2019-03-15T06:20:18.341Z,988.53
2019-03-15T06:21:29.059Z,988.49
2019-03-15T06:22:39.775Z,988.45
2019-03-15T06:23:50.633Z,988.46
2019-03-15T06:25:01.836Z,988.41
2019-03-15T06:26:12.753Z,988.40
2019-03-15T06:27:24.136Z,988.36
2019-03-15T06:28:34.694Z,988.42
2019-03-15T06:29:45.402Z,988.38
2019-03-15T06:30:56.626Z,988.39
2019-03-15T06:32:07.344Z,988.42
2019-03-15T06:33:19.551Z,988.40
2019-03-15T06:34:30.274Z,988.39
2019-03-15T06:35:41.489Z,988.36
2019-03-15T06:36:52.203Z,988.33
2019-03-15T06:38:02.929Z,988.31
2019-03-15T06:39:13.642Z,988.26
2019-03-15T06:40:24.358Z,988.27
2019-03-15T06:41:35.085Z,988.22
2019-03-15T06:42:45.981Z,988.20
2019-03-15T06:43:56.702Z,988.20
2019-03-15T06:45:07.419Z,988.20
2019-03-15T06:46:18.161Z,988.21
2019-03-15T06:47:30.060Z,988.23
2019-03-15T06:48:39.605Z,988.17
2019-03-15T06:49:50.333Z,988.15
2019-03-15T06:51:01.062Z,988.21
2019-03-15T06:52:11.792Z,988.16
2019-03-15T06:53:22.526Z,988.14
2019-03-15T06:54:33.256Z,988.00
2019-03-15T06:55:43.987Z,987.96
2019-03-15T06:56:54.720Z,987.91
2019-03-15T06:58:05.459Z,987.90
2019-03-15T06:59:16.198Z,987.90
2019-03-15T07:00:27.435Z,987.95
2019-03-15T07:01:38.168Z,987.98
2019-03-15T07:02:49.415Z,987.92
2019-03-15T07:04:00.642Z,987.89
2019-03-15T07:05:12.369Z,987.88
2019-03-15T07:06:22.109Z,987.85
2019-03-15T07:07:32.852Z,987.89
2019-03-15T07:08:43.588Z,987.92
2019-03-15T07:09:54.325Z,987.87
2019-03-15T07:11:05.060Z,987.88
2019-03-15T07:12:15.805Z,987.89
2019-03-15T07:13:26.544Z,987.93
2019-03-15T07:14:37.283Z,987.87
2019-03-15T07:15:48.028Z,987.84
2019-03-15T07:16:58.777Z,987.86
2019-03-15T07:18:09.518Z,987.84
2019-03-15T07:19:27.413Z,987.85
2019-03-15T07:20:32.004Z,987.87
2019-03-15T07:21:42.748Z,987.82
2019-03-15T07:22:53.497Z,987.80
2019-03-15T07:24:04.236Z,987.75
2019-03-15T07:25:14.982Z,987.79
2019-03-15T07:26:25.732Z,987.78
2019-03-15T07:27:36.636Z,987.80
2019-03-15T07:28:47.386Z,987.78
2019-03-15T07:29:59.973Z,987.73
2019-03-15T07:31:08.872Z,987.79
2019-03-15T07:32:19.626Z,987.78
2019-03-15T07:33:30.869Z,987.74
2019-03-15T07:34:41.739Z,987.69
2019-03-15T07:35:52.372Z,987.65
2019-03-15T07:37:03.131Z,987.64
2019-03-15T07:38:13.879Z,987.67
2019-03-15T07:39:26.546Z,987.67
2019-03-15T07:40:35.372Z,987.70
2019-03-15T07:41:47.117Z,987.63
2019-03-15T07:43:02.047Z,987.62
2019-03-15T07:44:09.124Z,987.56
2019-03-15T07:45:19.886Z,987.58
2019-03-15T07:46:30.637Z,987.57
2019-03-15T07:47:41.403Z,987.53
2019-03-15T07:48:52.157Z,987.58
2019-03-15T07:50:03.420Z,987.54
2019-03-15T07:51:14.169Z,987.59
2019-03-15T07:52:24.929Z,987.59
2019-03-15T07:53:35.745Z,987.60
2019-03-15T07:54:46.433Z,987.63
2019-03-15T07:55:57.180Z,987.58
2019-03-15T07:57:07.933Z,987.65
2019-03-15T07:58:18.694Z,987.65
2019-03-15T07:59:29.444Z,987.61
2019-03-15T08:00:40.204Z,987.57
2019-03-15T08:01:52.725Z,987.61
2019-03-15T08:03:01.706Z,987.61
2019-03-15T08:04:17.048Z,987.51
2019-03-15T08:05:24.218Z,987.50
2019-03-15T08:06:36.422Z,987.55
2019-03-15T08:07:46.219Z,987.52
2019-03-15T08:08:56.971Z,987.47
2019-03-15T08:10:07.737Z,987.42
2019-03-15T08:11:18.660Z,987.47
2019-03-15T08:12:29.404Z,987.48
2019-03-15T08:13:40.161Z,987.47
2019-03-15T08:14:50.918Z,987.52
2019-03-15T08:16:01.689Z,987.52
2019-03-15T08:17:12.447Z,987.45
2019-03-15T08:18:23.215Z,987.46
2019-03-15T08:19:33.973Z,987.45
2019-03-15T08:20:44.724Z,987.37
2019-03-15T08:21:56.803Z,987.37
2019-03-15T08:23:08.630Z,987.33
2019-03-15T08:24:18.027Z,987.41
2019-03-15T08:25:29.398Z,987.39
2019-03-15T08:26:40.158Z,987.29
2019-03-15T08:27:50.997Z,987.38
2019-03-15T08:29:01.766Z,987.41
2019-03-15T08:30:12.530Z,987.33
2019-03-15T08:31:23.786Z,987.30
2019-03-15T08:32:34.552Z,987.35
2019-03-15T08:33:45.322Z,987.34
2019-03-15T08:34:56.628Z,987.27
2019-03-15T08:36:07.385Z,987.32
2019-03-15T08:37:18.159Z,987.32
2019-03-15T08:38:29.414Z,987.29
2019-03-15T08:39:40.195Z,987.20
2019-03-15T08:40:50.949Z,987.25
2019-03-15T08:42:02.195Z,987.19
2019-03-15T08:43:12.954Z,987.19
2019-03-15T08:44:23.723Z,987.26
2019-03-15T08:45:34.718Z,987.24
2019-03-15T08:46:45.423Z,987.07
2019-03-15T08:47:56.169Z,987.15
2019-03-15T08:49:07.583Z,987.22
2019-03-15T08:50:18.341Z,987.24
2019-03-15T08:51:29.096Z,987.27
2019-03-15T08:52:42.144Z,987.12
2019-03-15T08:53:51.616Z,987.00
2019-03-15T08:55:05.511Z,987.06
2019-03-15T08:56:14.738Z,987.13
2019-03-15T08:57:25.390Z,987.21
2019-03-15T08:58:36.155Z,987.19
2019-03-15T08:59:54.202Z,987.26
2019-03-15T09:00:58.680Z,987.19
2019-03-15T09:02:09.439Z,987.15
2019-03-15T09:03:28.040Z,987.19
2019-03-15T09:04:31.473Z,987.13
2019-03-15T09:05:42.745Z,987.12
2019-03-15T09:06:53.983Z,987.06
2019-03-15T09:08:04.749Z,987.05
2019-03-15T09:09:15.504Z,987.02
2019-03-15T09:10:26.772Z,987.03
2019-03-15T09:11:38.029Z,987.10
2019-03-15T09:12:48.803Z,987.01
2019-03-15T09:14:00.063Z,987.06
2019-03-15T09:15:11.423Z,987.06
2019-03-15T09:17:33.986Z,987.04
2019-03-15T09:18:45.159Z,986.97
2019-03-15T09:19:56.945Z,986.89
2019-03-15T09:21:07.705Z,986.91
2019-03-15T09:22:18.626Z,986.84
2019-03-15T09:23:29.897Z,986.88
2019-03-15T09:24:41.170Z,986.81
2019-03-15T09:25:52.448Z,986.83
2019-03-15T09:27:03.736Z,986.83
2019-03-15T09:28:15.014Z,986.79
2019-03-15T09:29:25.791Z,986.77
2019-03-15T09:30:36.581Z,986.77
2019-03-15T09:31:48.513Z,986.68
2019-03-15T09:32:59.151Z,986.70
2019-03-15T09:34:09.974Z,986.71
2019-03-15T09:35:20.794Z,986.63
2019-03-15T09:36:33.961Z,986.53
2019-03-15T09:37:42.842Z,986.51
2019-03-15T09:38:54.130Z,986.52
2019-03-15T09:40:05.423Z,986.55
2019-03-15T09:41:30.482Z,986.51
2019-03-15T09:42:27.014Z,986.58
2019-03-15T09:43:38.299Z,986.50
2019-03-15T09:44:49.584Z,986.49
2019-03-15T09:46:00.881Z,986.51
2019-03-15T09:47:12.171Z,986.50
2019-03-15T09:48:23.459Z,986.52
2019-03-15T09:49:34.739Z,986.54
2019-03-15T09:50:51.522Z,986.48
2019-03-15T09:51:56.837Z,986.51
2019-03-15T09:53:08.137Z,986.47
2019-03-15T09:54:19.412Z,986.43
2019-03-15T09:55:33.356Z,986.43
2019-03-15T09:56:42.014Z,986.44
2019-03-15T09:57:52.785Z,986.44
2019-03-15T09:59:04.084Z,986.36
2019-03-15T10:00:14.868Z,986.42
2019-03-15T10:01:34.694Z,986.42
2019-03-15T10:02:37.467Z,986.42
2019-03-15T10:03:48.764Z,986.37
2019-03-15T10:05:10.077Z,986.44
2019-03-15T10:06:15.704Z,986.36
2019-03-15T10:07:37.400Z,986.40
2019-03-15T10:08:34.972Z,986.36
2019-03-15T10:09:46.455Z,986.35
2019-03-15T10:10:57.090Z,986.37
2019-03-15T10:12:08.401Z,986.34
2019-03-15T10:13:19.710Z,986.28
2019-03-15T10:14:31.016Z,986.24
2019-03-15T10:15:42.367Z,986.23
2019-03-15T10:16:54.625Z,986.27
2019-03-15T10:18:05.943Z,986.26
2019-03-15T10:19:17.292Z,986.25
2019-03-15T10:20:28.333Z,986.22
2019-03-15T10:21:39.660Z,986.14
2019-03-15T10:23:04.609Z,986.11
2019-03-15T10:24:02.320Z,986.07
2019-03-15T10:25:13.642Z,986.02
2019-03-15T10:26:24.959Z,986.01
2019-03-15T10:27:35.783Z,986.00
2019-03-15T10:28:47.099Z,985.90
2019-03-15T10:29:58.432Z,985.91
2019-03-15T10:31:09.750Z,985.94
2019-03-15T10:32:21.089Z,985.84
2019-03-15T10:33:32.443Z,985.81
2019-03-15T10:34:43.771Z,985.78
2019-03-15T10:35:55.109Z,985.77
2019-03-15T10:37:06.558Z,985.70
2019-03-15T10:38:17.797Z,985.73
2019-03-15T10:39:29.134Z,985.61
2019-03-15T10:40:40.628Z,985.67
2019-03-15T10:41:51.952Z,985.72
2019-03-15T10:43:03.299Z,985.67
2019-03-15T10:44:14.649Z,985.64
2019-03-15T10:45:25.991Z,985.54
2019-03-15T10:46:37.346Z,985.66
2019-03-15T10:47:48.698Z,985.70
2019-03-15T10:49:00.041Z,985.79
2019-03-15T10:50:11.382Z,985.83
2019-03-15T10:51:22.719Z,985.89
2019-03-15T10:52:34.112Z,985.88
2019-03-15T10:53:45.385Z,985.92
2019-03-15T10:54:56.711Z,985.89
2019-03-15T10:56:08.090Z,986.03
2019-03-15T10:57:19.424Z,986.05
2019-03-15T10:58:30.755Z,986.20
2019-03-15T10:59:42.081Z,986.15
2019-03-15T11:00:53.399Z,986.10
2019-03-15T11:02:04.738Z,986.11
2019-03-15T11:03:16.072Z,986.19
2019-03-15T11:04:27.399Z,986.28
2019-03-15T11:05:38.726Z,986.26
2019-03-15T11:06:50.053Z,986.27
2019-03-15T11:08:01.379Z,986.24
2019-03-15T11:09:12.695Z,986.15
2019-03-15T11:10:24.022Z,986.11
2019-03-15T11:11:35.338Z,986.19
2019-03-15T11:12:46.679Z,986.21
2019-03-15T11:13:58.023Z,986.20
2019-03-15T11:15:09.342Z,986.24
2019-03-15T11:16:20.667Z,986.16
2019-03-15T11:17:32.003Z,986.22
2019-03-15T11:18:43.649Z,986.20
2019-03-15T11:19:54.969Z,986.19
2019-03-15T11:21:06.303Z,986.25
2019-03-15T11:22:17.635Z,986.22
2019-03-15T11:23:28.997Z,986.23
2019-03-15T11:24:43.502Z,986.30
2019-03-15T11:25:51.601Z,986.39
2019-03-15T11:28:14.329Z,986.30
2019-03-15T11:29:25.669Z,986.34
2019-03-15T11:30:36.994Z,986.30
2019-03-15T11:31:49.320Z,986.30
2019-03-15T11:33:01.650Z,986.40
2019-03-15T11:34:12.987Z,986.40
2019-03-15T11:35:24.315Z,986.45
2019-03-15T11:36:35.663Z,986.43
2019-03-15T11:37:46.989Z,986.39
2019-03-15T11:38:58.305Z,986.40
2019-03-15T11:40:09.624Z,986.36
2019-03-15T11:41:21.946Z,986.37
2019-03-15T11:42:32.778Z,986.36
2019-03-15T11:43:45.104Z,986.38
2019-03-15T11:44:56.441Z,986.39
2019-03-15T11:46:07.765Z,986.23
2019-03-15T11:47:19.424Z,986.26
2019-03-15T11:48:29.980Z,986.25
2019-03-15T11:49:41.290Z,986.21
2019-03-15T11:50:52.649Z,986.17
2019-03-15T11:52:04.004Z,986.19
2019-03-15T11:53:18.706Z,986.12
2019-03-15T11:54:26.673Z,986.15
2019-03-15T11:55:38.012Z,986.14
2019-03-15T11:56:50.835Z,986.14
2019-03-15T11:58:00.687Z,986.20
2019-03-15T11:59:12.018Z,986.07
2019-03-15T12:00:23.357Z,986.10
2019-03-15T12:01:37.640Z,986.20
2019-03-15T12:02:46.037Z,986.09
2019-03-15T12:03:57.378Z,986.04
2019-03-15T12:05:08.739Z,986.01
2019-03-15T12:06:20.098Z,985.97
2019-03-15T12:07:31.441Z,985.94
2019-03-15T12:08:42.801Z,985.84
2019-03-15T12:09:54.164Z,985.77
2019-03-15T12:11:05.506Z,985.80
2019-03-15T12:12:16.367Z,985.68
2019-03-15T12:13:27.727Z,985.76
2019-03-15T12:14:41.115Z,985.70
2019-03-15T12:15:49.968Z,985.72
2019-03-15T12:17:01.844Z,985.71
2019-03-15T12:18:13.219Z,985.75
2019-03-15T12:19:24.590Z,985.71
2019-03-15T12:20:35.969Z,985.73
2019-03-15T12:21:47.406Z,985.75
2019-03-15T12:22:58.212Z,985.79
2019-03-15T12:24:09.590Z,985.78
2019-03-15T12:25:20.654Z,985.78
2019-03-15T12:26:40.207Z,985.65
2019-03-15T12:27:43.432Z,985.62
2019-03-15T12:28:54.811Z,985.47
2019-03-15T12:30:06.207Z,985.49
2019-03-15T12:31:17.610Z,985.39
2019-03-15T12:32:28.518Z,985.47
2019-03-15T12:33:39.906Z,985.37
2019-03-15T12:34:50.810Z,985.31
2019-03-15T12:36:03.595Z,985.27
2019-03-15T12:37:14.633Z,985.28
2019-03-15T12:38:25.549Z,985.22
2019-03-15T12:39:37.957Z,985.16
2019-03-15T12:40:49.365Z,985.14
2019-03-15T12:42:00.773Z,985.14
2019-03-15T12:43:12.196Z,985.03
2019-03-15T12:44:23.622Z,984.93
2019-03-15T12:45:36.054Z,984.87
2019-03-15T12:46:47.477Z,984.84
2019-03-15T12:47:58.910Z,984.74
2019-03-15T12:49:10.335Z,984.87
2019-03-15T12:50:21.784Z,984.98
2019-03-15T12:51:33.248Z,984.90
2019-03-15T12:52:48.742Z,984.97
2019-03-15T12:53:56.086Z,985.00
2019-03-15T12:55:07.520Z,985.01
2019-03-15T12:56:18.951Z,985.10
2019-03-15T12:57:31.413Z,985.03
2019-03-15T12:58:42.849Z,985.03
2019-03-15T12:59:54.293Z,984.95
2019-03-15T13:01:05.738Z,985.00
2019-03-15T13:02:20.087Z,984.88
2019-03-15T13:03:28.637Z,984.87
2019-03-15T13:04:40.092Z,984.76
2019-03-15T13:05:51.552Z,984.62
2019-03-15T13:07:03.027Z,984.61
2019-03-15T13:08:14.492Z,984.61
2019-03-15T13:09:25.955Z,984.69
2019-03-15T13:10:37.426Z,984.66
2019-03-15T13:11:48.892Z,984.58
2019-03-15T13:13:00.344Z,984.67
2019-03-15T13:14:11.817Z,984.71
2019-03-15T13:15:23.281Z,984.66
2019-03-15T13:16:34.759Z,984.76
2019-03-15T13:17:46.282Z,984.85
2019-03-15T13:18:57.655Z,984.86
2019-03-15T13:20:09.111Z,984.88
2019-03-15T13:21:21.033Z,984.98
2019-03-15T13:22:32.090Z,985.01
2019-03-15T13:23:43.537Z,985.10
2019-03-15T13:24:55.002Z,985.22
2019-03-15T13:26:05.985Z,985.30
2019-03-15T13:27:16.955Z,985.27
2019-03-15T13:28:28.400Z,985.24
2019-03-15T13:29:39.367Z,985.31
2019-03-15T13:30:50.823Z,985.34
2019-03-15T13:32:03.280Z,985.40
2019-03-15T13:33:20.239Z,985.29
2019-03-15T13:34:25.710Z,985.17
2019-03-15T13:35:37.170Z,985.17
2019-03-15T13:36:48.632Z,985.27
2019-03-15T13:38:00.125Z,985.21
2019-03-15T13:39:11.594Z,985.16
2019-03-15T13:40:22.574Z,985.00
2019-03-15T13:41:34.065Z,984.91
2019-03-15T13:42:45.556Z,984.86
2019-03-15T13:43:58.038Z,984.98
2019-03-15T13:45:09.034Z,985.02
2019-03-15T13:46:20.526Z,984.83
2019-03-15T13:47:32.019Z,984.69
2019-03-15T13:48:43.502Z,984.63
2019-03-15T13:49:54.986Z,984.74
2019-03-15T13:51:06.485Z,984.71
2019-03-15T13:52:17.980Z,984.74
2019-03-15T13:53:29.470Z,984.71
2019-03-15T13:54:40.963Z,984.86
2019-03-15T13:55:52.482Z,984.96
2019-03-15T13:57:03.663Z,985.11
2019-03-15T13:58:14.660Z,985.29
2019-03-15T13:59:26.151Z,985.36
2019-03-15T14:00:37.645Z,985.34
2019-03-15T14:01:48.648Z,985.19
2019-03-15T14:03:00.168Z,985.01
2019-03-15T14:04:11.663Z,984.94
2019-03-15T14:05:23.162Z,984.90
2019-03-15T14:06:34.171Z,984.63
2019-03-15T14:07:45.177Z,984.31
2019-03-15T14:08:56.684Z,984.14
2019-03-15T14:10:07.696Z,984.07
2019-03-15T14:11:18.710Z,984.15
2019-03-15T14:12:29.729Z,984.29
2019-03-15T14:13:40.751Z,984.29
2019-03-15T14:14:52.266Z,984.10
2019-03-15T14:16:03.797Z,983.83
2019-03-15T14:17:15.324Z,983.68
2019-03-15T14:18:26.881Z,983.86
2019-03-15T14:19:38.393Z,983.92
2019-03-15T14:20:49.422Z,983.76
2019-03-15T14:22:00.940Z,983.66
2019-03-15T14:23:11.985Z,983.73
2019-03-15T14:24:23.081Z,983.87
2019-03-15T14:25:34.049Z,983.96
2019-03-15T14:26:45.575Z,984.07
2019-03-15T14:27:57.101Z,983.84
2019-03-15T14:29:08.635Z,983.72
2019-03-15T14:30:19.665Z,983.90
2019-03-15T14:31:30.696Z,984.06
2019-03-15T14:32:42.225Z,984.29
2019-03-15T14:33:53.242Z,984.47
2019-03-15T14:35:04.272Z,984.65
2019-03-15T14:36:15.780Z,984.82
2019-03-15T14:37:27.373Z,984.99
2019-03-15T14:38:38.974Z,985.16
2019-03-15T14:39:50.404Z,985.43
2019-03-15T14:41:01.802Z,985.37
2019-03-15T14:42:13.402Z,985.23
2019-03-15T14:43:24.321Z,985.24
2019-03-15T14:44:35.371Z,985.19
2019-03-15T14:45:46.899Z,985.22
2019-03-15T14:46:58.251Z,985.20
2019-03-15T14:48:09.233Z,985.22